Planaltina, Brazil
Current Conditions -  °F | °C
As of 11:00 AM on Thursday 27 Nov 2014 (Local Time) from SBBR Reporting Station
Broken Clouds Broken Clouds  
Wind Chill: 75°   Ceiling: 3000
Heat Index: 75°   Visibility: 6mi
Dew Point: 66°   Wind: 10mph
Humidity: 73%   Direction: 330°NNW
Pressure: 30.06"   Gusts: NA
Location:  15.45°S, 47.61°W
Report Text: SBBR 271300Z 33009KT 9999 FEW017 BKN030 FEW035TCU BKN100 24/19 Q1018
Loading
Personal Weather Stations






























Interactive Weather Map New forecast layout! Learn more

10-Day Weather Forecast

Advertisements
Track Severe Weather on mobile